Pagina principale
METAR-TAF:

METAR-TAF

Aeroporti :

Aeroporto di Urmia

Urmia, Iran

latitudine: 37-32N, longitudine: 045-05E, altezza: 1297 m

Osservazione

Il bollettino è stato emesso 46 minuti fa, alle 21:00 UTC
Vento 6 kt da ovest
Temperature 11°C
Umidità 54%
Pressione 1023 hPa
Visibilità: 7000 m
Nubi sparse ad un'altezza di 4000 ft
Nuvoloso ad un'altezza di 9000 ft

METAR: OITR 292100Z 28006KT 7000 SCT040 BKN090 11/02 Q1023

Ora: 01:16 (21:46 UTC)

Previsione

Il bollettino è stato emesso 3 ore e 56 minuti fa, alle 17:50 UTC
Previsione valida dal 29 alle 18 UTC al 30 alle 24 UTC
Vento 8 kt da ovest
Visibilità: 7000 m
Poco nuvoloso ad un'altezza di 3500 ft
Temporaneamente
dal 30 alle 09 UTC al 30 alle 15 UTC
Vento 14 kt da est/sud-est
Poco nuvoloso ad un'altezza di 3500 ft, Cumulo congesto.
Nubi sparse ad un'altezza di 4000 ft
Nubi sparse ad un'altezza di 10000 ft

TAF: OITR 291750Z 2918/3024 26008KT 7000 FEW035 TEMPO 3009/3015 12014KT FEW035TCU SCT040 SCT100

Osservazioni e previsioni meteorologiche di più di 4000 aeroporti (messaggi METAR e TAF).

Le stazioni disponibili sono rappresentate dai dischi gialli e rossi sulla carta.

Puntare il mouse per vedere il nome della stazione.

Clicca sopra per visualizzare le osservazioni e previsioni meteorologiche.

Per cambiare la mappa : fare clic sui pulsanti verdi con una croce nera per ingrandire, il pulsante verde con un trattino per diminuire, o sulla freccia verde per le mappe adiacenti.


METAR-TAF: